Time;durP1;ratioP1;P1;durP2;ratioP2;P2;SDS_P1;SDS_P2;PMS_P1;PMS_P2;Temp;Humidity;BMP_temperature;BMP_pressure;BME280_temperature;BME280_humidity;BME280_pressure;Samples;Min_cycle;Max_cycle;Signal;HPM_P1;HPM_P2
2022/07/17 00:00:58;;;;;;;7.45;4.82;;;;;;;;;;5032466;28;20498;-66
2022/07/17 00:03:24;;;;;;;6.70;4.80;;;;;;;;;;5032777;28;20029;-71
2022/07/17 00:05:51;;;;;;;7.60;4.70;;;;;;;;;;5032764;28;20029;-67
2022/07/17 00:08:17;;;;;;;9.27;5.05;;;;;;;;;;5032713;28;20080;-66
2022/07/17 00:10:43;;;;;;;7.07;4.65;;;;;;;;;;5032601;28;20507;-65
2022/07/17 00:13:10;;;;;;;7.10;4.68;;;;;;;;;;5032507;28;20053;-65
2022/07/17 00:15:36;;;;;;;5.90;4.35;;;;;;;;;;5032657;28;20026;-66
2022/07/17 00:18:03;;;;;;;5.90;5.07;;;;;;;;;;5032656;28;20022;-73
2022/07/17 00:20:30;;;;;;;7.70;4.80;;;;;;;;;;5032563;28;20468;-64
2022/07/17 00:22:57;;;;;;;7.47;5.00;;;;;;;;;;5032558;28;20030;-66
2022/07/17 00:25:23;;;;;;;5.57;4.70;;;;;;;;;;5032841;28;20108;-68
2022/07/17 00:27:49;;;;;;;6.60;4.90;;;;;;;;;;5032597;28;20075;-65
2022/07/17 00:30:16;;;;;;;7.10;4.57;;;;;;;;;;5035986;28;20388;-63
2022/07/17 00:32:42;;;;;;;6.50;4.30;;;;;;;;;;5036569;28;20029;-65
2022/07/17 00:35:08;;;;;;;6.20;4.38;;;;;;;;;;5036509;28;20025;-65
2022/07/17 00:37:41;;;;;;;7.95;5.03;;;;;;;;;;5036370;28;20484;-65
2022/07/17 00:40:08;;;;;;;5.57;4.40;;;;;;;;;;5036388;28;20079;-65
2022/07/17 00:42:34;;;;;;;8.77;4.57;;;;;;;;;;5036434;28;20046;-65
2022/07/17 00:45:00;;;;;;;7.45;4.70;;;;;;;;;;5036331;28;20021;-72
2022/07/17 00:47:27;;;;;;;6.63;5.00;;;;;;;;;;5036249;28;20447;-75
2022/07/17 00:49:53;;;;;;;6.35;4.88;;;;;;;;;;5036243;28;20103;-74
2022/07/17 00:52:19;;;;;;;6.53;4.28;;;;;;;;;;5036066;28;20492;-69
2022/07/17 00:54:46;;;;;;;4.88;4.07;;;;;;;;;;5036140;28;20028;-66
2022/07/17 00:57:13;;;;;;;8.60;4.32;;;;;;;;;;5036319;28;20390;-66
2022/07/17 00:59:40;;;;;;;9.23;4.63;;;;;;;;;;5035904;28;20029;-66
2022/07/17 01:02:07;;;;;;;5.32;4.55;;;;;;;;;;5035588;28;20471;-71
2022/07/17 01:04:34;;;;;;;7.45;4.43;;;;;;;;;;5035665;28;20029;-66
2022/07/17 01:07:00;;;;;;;5.22;4.72;;;;;;;;;;5035599;28;20056;-66
2022/07/17 01:09:29;;;;;;;6.03;4.22;;;;;;;;;;5035736;28;20079;-66
2022/07/17 01:11:56;;;;;;;5.13;4.63;;;;;;;;;;5035196;28;20473;-66
2022/07/17 01:14:25;;;;;;;6.68;4.45;;;;;;;;;;5035627;28;20439;-65
2022/07/17 01:16:52;;;;;;;6.85;3.85;;;;;;;;;;5035435;28;20105;-66
2022/07/17 01:19:18;;;;;;;6.68;4.30;;;;;;;;;;5035644;28;20022;-65
2022/07/17 01:21:45;;;;;;;8.05;4.45;;;;;;;;;;5035225;28;20128;-65
2022/07/17 01:24:12;;;;;;;6.60;4.53;;;;;;;;;;5035221;28;20031;-66
2022/07/17 01:26:40;;;;;;;5.95;4.40;;;;;;;;;;5035311;28;20027;-68
2022/07/17 01:29:06;;;;;;;4.60;4.07;;;;;;;;;;5035092;28;20029;-65
2022/07/17 01:31:33;;;;;;;5.68;4.63;;;;;;;;;;5034946;28;20037;-66
2022/07/17 01:34:00;;;;;;;4.95;4.43;;;;;;;;;;5035138;28;20026;-65
2022/07/17 01:36:26;;;;;;;7.15;4.35;;;;;;;;;;5035107;28;20018;-65
2022/07/17 01:38:54;;;;;;;4.90;4.18;;;;;;;;;;5035114;28;20107;-67
2022/07/17 01:41:20;;;;;;;7.53;4.88;;;;;;;;;;5034477;28;20506;-67
2022/07/17 01:43:46;;;;;;;5.15;4.40;;;;;;;;;;5034883;28;20025;-66
2022/07/17 01:46:12;;;;;;;6.95;4.47;;;;;;;;;;5034799;28;20025;-65
2022/07/17 01:48:38;;;;;;;6.22;4.55;;;;;;;;;;5034899;28;20017;-65
2022/07/17 01:51:05;;;;;;;6.68;4.63;;;;;;;;;;5034771;28;20033;-66
2022/07/17 01:53:31;;;;;;;5.50;4.20;;;;;;;;;;5034729;28;20056;-67
2022/07/17 01:55:57;;;;;;;6.28;4.50;;;;;;;;;;5035134;28;20034;-66
2022/07/17 01:58:23;;;;;;;5.70;4.55;;;;;;;;;;5034975;28;20496;-66
2022/07/17 02:00:50;;;;;;;5.32;4.60;;;;;;;;;;5034652;28;20079;-66
2022/07/17 02:03:16;;;;;;;4.82;3.97;;;;;;;;;;5034909;28;20506;-66
2022/07/17 02:05:42;;;;;;;5.85;4.50;;;;;;;;;;5034892;28;20035;-67
2022/07/17 02:08:08;;;;;;;9.27;4.95;;;;;;;;;;5034780;28;20026;-66
2022/07/17 02:10:34;;;;;;;5.28;4.25;;;;;;;;;;5034659;28;20026;-65
2022/07/17 02:13:00;;;;;;;6.10;4.40;;;;;;;;;;5034414;28;20053;-65
2022/07/17 02:15:27;;;;;;;7.28;4.40;;;;;;;;;;5034635;28;20112;-66
2022/07/17 02:17:53;;;;;;;8.25;4.80;;;;;;;;;;5034515;28;20022;-66
2022/07/17 02:20:19;;;;;;;7.20;4.30;;;;;;;;;;5034368;28;20038;-66
2022/07/17 02:22:45;;;;;;;7.80;4.75;;;;;;;;;;5034053;28;20029;-70
2022/07/17 02:25:11;;;;;;;5.95;4.15;;;;;;;;;;5034098;28;20026;-66
2022/07/17 02:27:38;;;;;;;5.57;4.22;;;;;;;;;;5034090;28;20029;-66
2022/07/17 02:30:04;;;;;;;5.22;4.65;;;;;;;;;;5034058;28;20021;-66
2022/07/17 02:32:30;;;;;;;5.82;4.20;;;;;;;;;;5033873;28;20026;-67
2022/07/17 02:34:56;;;;;;;5.65;4.50;;;;;;;;;;5033914;28;20079;-65
2022/07/17 02:37:22;;;;;;;5.65;4.45;;;;;;;;;;5033919;28;20440;-67
2022/07/17 02:39:54;;;;;;;5.43;4.20;;;;;;;;;;5033731;28;20590;-66
2022/07/17 02:42:21;;;;;;;5.25;4.40;;;;;;;;;;5033574;28;20034;-64
2022/07/17 02:44:48;;;;;;;6.03;4.38;;;;;;;;;;5033726;28;20095;-66
2022/07/17 02:47:14;;;;;;;6.78;4.47;;;;;;;;;;5033606;28;20060;-68
2022/07/17 02:49:40;;;;;;;4.70;4.28;;;;;;;;;;5033708;28;20444;-66
2022/07/17 02:52:06;;;;;;;4.88;4.30;;;;;;;;;;5033046;28;20462;-66
2022/07/17 02:54:33;;;;;;;5.40;4.70;;;;;;;;;;5033737;28;20045;-67
2022/07/17 02:56:59;;;;;;;5.32;3.78;;;;;;;;;;5033832;28;20028;-66
2022/07/17 02:59:25;;;;;;;7.22;4.95;;;;;;;;;;5033437;28;20030;-67
2022/07/17 03:01:51;;;;;;;8.27;4.68;;;;;;;;;;5033134;28;20076;-67
2022/07/17 03:04:17;;;;;;;5.30;4.30;;;;;;;;;;5033439;28;20092;-67
2022/07/17 03:06:43;;;;;;;6.93;5.30;;;;;;;;;;5033587;28;20033;-66
2022/07/17 03:09:09;;;;;;;5.20;4.35;;;;;;;;;;5033340;28;20021;-66
2022/07/17 03:11:35;;;;;;;9.52;4.60;;;;;;;;;;5032815;28;20080;-67
2022/07/17 03:14:01;;;;;;;7.18;4.07;;;;;;;;;;5033564;28;20030;-67
2022/07/17 03:16:27;;;;;;;5.60;4.53;;;;;;;;;;5033386;28;20467;-65
2022/07/17 03:18:53;;;;;;;6.50;4.38;;;;;;;;;;5033418;28;20381;-66
2022/07/17 03:21:19;;;;;;;5.70;4.35;;;;;;;;;;5033517;28;20122;-65
2022/07/17 03:23:45;;;;;;;5.75;4.07;;;;;;;;;;5033294;28;20028;-65
2022/07/17 03:26:11;;;;;;;5.72;4.43;;;;;;;;;;5033085;28;20025;-67
2022/07/17 03:28:37;;;;;;;4.38;3.85;;;;;;;;;;5032942;28;20017;-66
2022/07/17 03:31:03;;;;;;;5.07;4.40;;;;;;;;;;5032622;28;20025;-67
2022/07/17 03:33:29;;;;;;;6.53;4.43;;;;;;;;;;5032900;28;20022;-67
2022/07/17 03:35:56;;;;;;;5.47;4.32;;;;;;;;;;5032848;28;20029;-67
2022/07/17 03:38:22;;;;;;;4.88;4.30;;;;;;;;;;5032999;28;20037;-69
2022/07/17 03:40:48;;;;;;;5.63;4.15;;;;;;;;;;5032751;28;20459;-67
2022/07/17 03:43:14;;;;;;;6.13;4.25;;;;;;;;;;5032720;28;20121;-67
2022/07/17 03:45:40;;;;;;;4.65;4.03;;;;;;;;;;5032532;28;20480;-67
2022/07/17 03:48:06;;;;;;;5.30;3.72;;;;;;;;;;5032704;28;20025;-67
2022/07/17 03:50:32;;;;;;;7.03;4.00;;;;;;;;;;5032814;28;20380;-67
2022/07/17 03:52:58;;;;;;;8.85;4.72;;;;;;;;;;5032618;28;20029;-67
2022/07/17 03:55:24;;;;;;;6.35;4.88;;;;;;;;;;5032439;28;20029;-67
2022/07/17 03:57:50;;;;;;;6.53;4.53;;;;;;;;;;5032525;28;20025;-67
2022/07/17 04:00:17;;;;;;;8.32;4.80;;;;;;;;;;5032225;28;20399;-67
2022/07/17 04:02:44;;;;;;;9.13;4.65;;;;;;;;;;5032644;28;20426;-67
2022/07/17 04:05:10;;;;;;;8.45;4.75;;;;;;;;;;5032569;28;20029;-65
2022/07/17 04:07:37;;;;;;;7.03;4.65;;;;;;;;;;5032352;28;20025;-66
2022/07/17 04:10:03;;;;;;;6.70;4.43;;;;;;;;;;5032475;28;20369;-66
2022/07/17 04:12:29;;;;;;;5.93;4.60;;;;;;;;;;5031958;28;20041;-66
2022/07/17 04:14:56;;;;;;;6.32;4.18;;;;;;;;;;5032295;28;20398;-66
2022/07/17 04:17:22;;;;;;;6.90;4.68;;;;;;;;;;5032573;28;20022;-66
2022/07/17 04:19:48;;;;;;;7.70;4.63;;;;;;;;;;5032749;28;20025;-66
2022/07/17 04:22:14;;;;;;;4.82;4.32;;;;;;;;;;5032619;28;20041;-69
2022/07/17 04:24:41;;;;;;;6.75;4.53;;;;;;;;;;5032535;28;20032;-65
2022/07/17 04:27:07;;;;;;;6.60;4.53;;;;;;;;;;5032473;28;20029;-65
2022/07/17 04:29:33;;;;;;;7.15;4.43;;;;;;;;;;5032477;28;20021;-66
2022/07/17 04:31:59;;;;;;;5.45;4.45;;;;;;;;;;5032573;28;20026;-65
2022/07/17 04:34:26;;;;;;;8.02;4.47;;;;;;;;;;5032880;28;20060;-66
2022/07/17 04:36:52;;;;;;;5.25;4.40;;;;;;;;;;5032655;28;20030;-66
2022/07/17 04:39:18;;;;;;;5.70;4.70;;;;;;;;;;5032448;28;20032;-66
2022/07/17 04:41:44;;;;;;;6.80;4.75;;;;;;;;;;5032216;28;20041;-66
2022/07/17 04:44:10;;;;;;;7.25;4.63;;;;;;;;;;5032704;28;20388;-65
2022/07/17 04:46:36;;;;;;;12.18;4.88;;;;;;;;;;5032344;28;20021;-66
2022/07/17 04:49:03;;;;;;;8.45;4.03;;;;;;;;;;5032475;28;20022;-70
2022/07/17 04:51:29;;;;;;;7.05;4.65;;;;;;;;;;5032277;28;20100;-66
2022/07/17 04:53:55;;;;;;;6.68;4.93;;;;;;;;;;5032329;28;20022;-66
2022/07/17 04:56:21;;;;;;;10.93;5.20;;;;;;;;;;5032395;28;20064;-65
2022/07/17 04:58:47;;;;;;;6.97;4.53;;;;;;;;;;5032266;28;20467;-65
2022/07/17 05:01:13;;;;;;;6.90;4.78;;;;;;;;;;5032031;28;20025;-65
2022/07/17 05:03:39;;;;;;;8.40;4.00;;;;;;;;;;5032001;28;20045;-65
2022/07/17 05:06:06;;;;;;;4.82;4.18;;;;;;;;;;5032245;28;20025;-66
2022/07/17 05:08:32;;;;;;;8.23;5.15;;;;;;;;;;5032205;28;20040;-66
2022/07/17 05:10:58;;;;;;;7.45;4.45;;;;;;;;;;5031806;28;20065;-66
2022/07/17 05:13:25;;;;;;;7.80;4.80;;;;;;;;;;5032253;28;20037;-66
2022/07/17 05:15:51;;;;;;;5.90;4.93;;;;;;;;;;5034699;28;20665;-66
2022/07/17 05:18:17;;;;;;;6.35;4.95;;;;;;;;;;5035667;28;20155;-65
2022/07/17 05:20:43;;;;;;;5.22;4.32;;;;;;;;;;5035565;28;20025;-66
2022/07/17 05:23:09;;;;;;;6.13;4.20;;;;;;;;;;5035718;28;20069;-66
2022/07/17 05:25:35;;;;;;;5.93;4.05;;;;;;;;;;5035524;28;20096;-66
2022/07/17 05:28:02;;;;;;;8.45;4.30;;;;;;;;;;5035497;28;20036;-66
2022/07/17 05:30:28;;;;;;;8.15;4.10;;;;;;;;;;5035379;28;20029;-67
2022/07/17 05:32:54;;;;;;;10.25;4.53;;;;;;;;;;5035323;28;20029;-66
2022/07/17 05:35:20;;;;;;;7.75;4.68;;;;;;;;;;5035363;28;20026;-65
2022/07/17 05:37:46;;;;;;;7.35;4.05;;;;;;;;;;5035173;28;20035;-65
2022/07/17 05:40:12;;;;;;;8.18;3.90;;;;;;;;;;5035003;28;20391;-66
2022/07/17 05:42:38;;;;;;;5.38;4.00;;;;;;;;;;5035543;28;20022;-65
2022/07/17 05:45:05;;;;;;;5.40;4.20;;;;;;;;;;5035287;28;20025;-65
2022/07/17 05:47:31;;;;;;;5.13;3.70;;;;;;;;;;5035096;28;20047;-65
2022/07/17 05:49:57;;;;;;;8.88;3.97;;;;;;;;;;5035072;28;20531;-65
2022/07/17 05:52:23;;;;;;;6.75;4.22;;;;;;;;;;5035072;28;20034;-65
2022/07/17 05:54:50;;;;;;;8.73;4.25;;;;;;;;;;5035043;28;20430;-65
2022/07/17 05:57:16;;;;;;;5.57;3.70;;;;;;;;;;5035086;28;20025;-66
2022/07/17 05:59:42;;;;;;;6.63;3.90;;;;;;;;;;5034898;28;20496;-66
2022/07/17 06:02:08;;;;;;;5.90;3.75;;;;;;;;;;5034942;28;20033;-65
2022/07/17 06:04:34;;;;;;;6.03;3.95;;;;;;;;;;5034983;28;20026;-66
2022/07/17 06:07:00;;;;;;;5.22;3.40;;;;;;;;;;5034876;28;20025;-66
2022/07/17 06:09:26;;;;;;;8.75;4.10;;;;;;;;;;5034722;28;20025;-65
2022/07/17 06:11:52;;;;;;;53.30;8.77;;;;;;;;;;5034341;28;20543;-65
2022/07/17 06:14:18;;;;;;;8.25;4.47;;;;;;;;;;5034712;28;20029;-65
2022/07/17 06:16:44;;;;;;;11.98;4.30;;;;;;;;;;5034888;28;20423;-65
2022/07/17 06:19:10;;;;;;;8.93;4.60;;;;;;;;;;5034461;28;20076;-65
2022/07/17 06:21:36;;;;;;;8.40;4.20;;;;;;;;;;5034426;28;20037;-67
2022/07/17 06:24:03;;;;;;;8.48;3.42;;;;;;;;;;5034257;28;20017;-69
2022/07/17 06:26:29;;;;;;;7.75;4.13;;;;;;;;;;5032959;28;20491;-67
2022/07/17 06:28:55;;;;;;;4.80;3.70;;;;;;;;;;5034141;28;20396;-67
2022/07/17 06:31:22;;;;;;;6.10;3.30;;;;;;;;;;5034176;28;20034;-67
2022/07/17 06:33:48;;;;;;;14.15;5.82;;;;;;;;;;5033826;28;20021;-68
2022/07/17 06:36:14;;;;;;;5.93;3.83;;;;;;;;;;5033954;28;20408;-69
2022/07/17 06:38:40;;;;;;;4.88;3.22;;;;;;;;;;5034332;28;20017;-70
2022/07/17 06:41:06;;;;;;;5.13;3.20;;;;;;;;;;5032283;28;20037;-71
2022/07/17 06:43:32;;;;;;;6.35;3.47;;;;;;;;;;5033770;28;20032;-67
2022/07/17 06:45:58;;;;;;;10.43;6.32;;;;;;;;;;5033821;28;20029;-67
2022/07/17 06:48:24;;;;;;;5.18;3.65;;;;;;;;;;5033602;28;20733;-67
2022/07/17 06:50:50;;;;;;;6.22;3.50;;;;;;;;;;5032479;28;20025;-69
2022/07/17 06:53:17;;;;;;;8.73;4.40;;;;;;;;;;5033576;28;20108;-67
2022/07/17 06:55:43;;;;;;;5.45;3.53;;;;;;;;;;5033473;28;20063;-67
2022/07/17 06:58:09;;;;;;;12.23;5.60;;;;;;;;;;5033519;28;20029;-67
2022/07/17 07:00:35;;;;;;;6.28;3.47;;;;;;;;;;5033158;28;20513;-66
2022/07/17 07:03:01;;;;;;;3.35;3.05;;;;;;;;;;5033340;28;20108;-67
2022/07/17 07:05:27;;;;;;;4.70;3.30;;;;;;;;;;5033191;28;20018;-67
2022/07/17 07:07:53;;;;;;;4.88;3.63;;;;;;;;;;5033464;28;20380;-67
2022/07/17 07:10:20;;;;;;;4.38;3.35;;;;;;;;;;5033068;28;20025;-66
2022/07/17 07:12:46;;;;;;;8.32;5.57;;;;;;;;;;5032858;28;20477;-67
2022/07/17 07:15:14;;;;;;;6.75;4.60;;;;;;;;;;5033311;28;20017;-67
2022/07/17 07:17:40;;;;;;;7.13;3.70;;;;;;;;;;5033419;28;20017;-67
2022/07/17 07:20:06;;;;;;;5.00;3.35;;;;;;;;;;5033181;28;20083;-71
2022/07/17 07:22:33;;;;;;;6.53;3.53;;;;;;;;;;5033433;28;20026;-69
2022/07/17 07:24:59;;;;;;;6.78;4.10;;;;;;;;;;5033295;28;20029;-67
2022/07/17 07:27:25;;;;;;;6.78;4.05;;;;;;;;;;5033325;28;20029;-66
2022/07/17 07:29:51;;;;;;;5.75;3.22;;;;;;;;;;5033163;28;20395;-67
2022/07/17 07:32:17;;;;;;;13.25;6.70;;;;;;;;;;5033090;28;20025;-66
2022/07/17 07:34:43;;;;;;;5.10;3.72;;;;;;;;;;5033219;28;20030;-69
2022/07/17 07:37:09;;;;;;;7.40;5.68;;;;;;;;;;5033032;28;20020;-67
2022/07/17 07:39:35;;;;;;;31.65;19.38;;;;;;;;;;5032961;28;20032;-67
2022/07/17 07:42:01;;;;;;;18.70;13.52;;;;;;;;;;5032762;28;20089;-69
2022/07/17 07:44:27;;;;;;;14.65;10.25;;;;;;;;;;5033080;28;20022;-72
2022/07/17 07:46:53;;;;;;;40.63;26.63;;;;;;;;;;5033071;28;20499;-67
2022/07/17 07:49:19;;;;;;;29.80;20.58;;;;;;;;;;5032819;28;20029;-66
2022/07/17 07:51:45;;;;;;;17.88;11.38;;;;;;;;;;5032853;28;20025;-67
2022/07/17 07:54:12;;;;;;;17.27;12.10;;;;;;;;;;5032853;28;20545;-68
2022/07/17 07:56:38;;;;;;;79.93;54.35;;;;;;;;;;5033074;28;20052;-67
2022/07/17 07:59:04;;;;;;;38.72;26.08;;;;;;;;;;5033113;28;20031;-67
2022/07/17 08:01:30;;;;;;;65.78;43.30;;;;;;;;;;5032441;28;20040;-66
2022/07/17 08:03:56;;;;;;;31.48;23.52;;;;;;;;;;5032928;28;20033;-66
2022/07/17 08:06:22;;;;;;;71.00;46.88;;;;;;;;;;5032656;28;20112;-66
2022/07/17 08:08:48;;;;;;;138.32;101.20;;;;;;;;;;5032665;28;20387;-68
2022/07/17 08:11:15;;;;;;;14.63;11.20;;;;;;;;;;5032027;28;20464;-66
2022/07/17 08:13:42;;;;;;;13.32;10.52;;;;;;;;;;5032491;28;20044;-66
2022/07/17 08:16:08;;;;;;;10.85;7.32;;;;;;;;;;5032290;28;20029;-67
2022/07/17 08:18:34;;;;;;;41.30;29.08;;;;;;;;;;5032286;28;20521;-66
2022/07/17 08:21:00;;;;;;;14.27;9.30;;;;;;;;;;5032032;28;20073;-68
2022/07/17 08:23:27;;;;;;;12.38;9.40;;;;;;;;;;5032181;28;20076;-66
2022/07/17 08:25:53;;;;;;;10.48;5.57;;;;;;;;;;5032136;28;20036;-68
2022/07/17 08:28:19;;;;;;;24.95;19.17;;;;;;;;;;5032303;28;20026;-67
2022/07/17 08:30:45;;;;;;;8.85;6.05;;;;;;;;;;5032075;28;20030;-68
2022/07/17 08:33:14;;;;;;;7.10;5.43;;;;;;;;;;5032413;28;20033;-66
2022/07/17 08:35:40;;;;;;;9.13;5.88;;;;;;;;;;5031873;28;20021;-66
2022/07/17 08:38:06;;;;;;;10.20;6.30;;;;;;;;;;5032101;28;20076;-66
2022/07/17 08:40:34;;;;;;;10.20;6.80;;;;;;;;;;5031934;28;20048;-66
2022/07/17 08:43:01;;;;;;;6.15;3.95;;;;;;;;;;5032227;28;20060;-66
2022/07/17 08:45:27;;;;;;;8.52;5.32;;;;;;;;;;5032033;28;20018;-66
2022/07/17 08:47:54;;;;;;;6.28;4.35;;;;;;;;;;5032215;28;20052;-66
2022/07/17 08:50:22;;;;;;;8.98;4.93;;;;;;;;;;5033929;28;20159;-66
2022/07/17 08:52:48;;;;;;;20.92;15.98;;;;;;;;;;5035866;28;20120;-66
2022/07/17 08:55:15;;;;;;;7.78;4.18;;;;;;;;;;5035700;28;20391;-66
2022/07/17 08:57:43;;;;;;;8.88;6.15;;;;;;;;;;5035947;28;20387;-67
2022/07/17 09:00:12;;;;;;;6.35;4.68;;;;;;;;;;5035696;28;20492;-66
2022/07/17 09:02:39;;;;;;;10.55;8.27;;;;;;;;;;5035986;28;20430;-66
2022/07/17 09:05:06;;;;;;;38.85;26.90;;;;;;;;;;5036038;28;20022;-67
2022/07/17 09:07:32;;;;;;;17.73;12.63;;;;;;;;;;5036107;28;20091;-66
2022/07/17 09:09:59;;;;;;;7.75;5.60;;;;;;;;;;5034686;28;20025;-67
2022/07/17 09:12:29;;;;;;;27.08;19.75;;;;;;;;;;5035571;28;20410;-67
2022/07/17 09:14:56;;;;;;;21.05;14.93;;;;;;;;;;5035796;28;20117;-68
2022/07/17 09:17:24;;;;;;;33.80;23.38;;;;;;;;;;5035846;28;20381;-66
2022/07/17 09:19:51;;;;;;;15.68;11.23;;;;;;;;;;5035448;28;20078;-66
2022/07/17 09:22:17;;;;;;;6.70;4.35;;;;;;;;;;5035709;28;20060;-66
2022/07/17 09:24:43;;;;;;;9.40;3.90;;;;;;;;;;5035813;28;20034;-67
2022/07/17 09:27:10;;;;;;;16.83;11.50;;;;;;;;;;5035603;28;20045;-67
2022/07/17 09:29:50;;;;;;;15.10;11.82;;;;;;;;;;5035731;28;20057;-66
2022/07/17 09:32:23;;;;;;;24.35;17.38;;;;;;;;;;5035443;28;20034;-68
2022/07/17 09:34:50;;;;;;;13.10;9.07;;;;;;;;;;5035406;28;20033;-67
2022/07/17 09:37:16;;;;;;;12.82;9.32;;;;;;;;;;5035293;28;20017;-68
2022/07/17 09:39:42;;;;;;;5.22;3.63;;;;;;;;;;5035344;28;20091;-67
2022/07/17 09:42:09;;;;;;;13.05;8.63;;;;;;;;;;5035197;28;20413;-67
2022/07/17 09:44:35;;;;;;;12.25;5.93;;;;;;;;;;5035307;28;20471;-67
2022/07/17 09:47:04;;;;;;;5.50;3.47;;;;;;;;;;5035104;28;20113;-67
2022/07/17 09:49:30;;;;;;;11.20;6.72;;;;;;;;;;5035141;28;20022;-68
2022/07/17 09:51:58;;;;;;;5.93;3.30;;;;;;;;;;5035161;28;20396;-67
2022/07/17 09:54:24;;;;;;;3.90;2.72;;;;;;;;;;5035226;28;20025;-67
2022/07/17 09:56:51;;;;;;;8.43;4.95;;;;;;;;;;5034961;28;20018;-66
2022/07/17 09:59:18;;;;;;;14.25;3.65;;;;;;;;;;5035048;28;20030;-66
2022/07/17 10:01:48;;;;;;;5.97;3.38;;;;;;;;;;5034322;28;20030;-67
2022/07/17 10:04:15;;;;;;;49.27;32.77;;;;;;;;;;5034906;28;20017;-67
2022/07/17 10:06:41;;;;;;;13.93;8.40;;;;;;;;;;5034676;28;20057;-66
2022/07/17 10:09:07;;;;;;;56.92;40.22;;;;;;;;;;5034844;28;20468;-67
2022/07/17 10:11:35;;;;;;;19.45;14.77;;;;;;;;;;5034369;28;20041;-67
2022/07/17 10:14:03;;;;;;;50.17;35.10;;;;;;;;;;5034844;28;20032;-73
2022/07/17 10:16:30;;;;;;;16.33;10.30;;;;;;;;;;5034697;28;20083;-68
2022/07/17 10:18:58;;;;;;;34.83;24.95;;;;;;;;;;5034700;28;20018;-74
2022/07/17 10:21:27;;;;;;;16.92;11.60;;;;;;;;;;5034856;28;20129;-72
2022/07/17 10:23:53;;;;;;;13.90;6.90;;;;;;;;;;5034476;28;20025;-70
2022/07/17 10:26:51;;;;;;;7.13;3.55;;;;;;;;;;5034714;28;20033;-68
2022/07/17 10:29:29;;;;;;;14.68;8.02;;;;;;;;;;4973468;28;20101;-70
2022/07/17 10:31:56;;;;;;;13.75;8.70;;;;;;;;;;4973013;28;20397;-68
2022/07/17 10:34:40;;;;;;;6.28;3.40;;;;;;;;;;4973106;28;20584;-68
2022/07/17 10:37:16;;;;;;;7.03;4.18;;;;;;;;;;4972854;28;20035;-67
2022/07/17 10:39:53;;;;;;;8.68;4.65;;;;;;;;;;4972956;28;20066;-70
2022/07/17 10:42:37;;;;;;;8.95;5.75;;;;;;;;;;4972532;28;20039;-70
2022/07/17 10:45:10;;;;;;;5.38;3.28;;;;;;;;;;4972933;28;20122;-69
2022/07/17 10:47:55;;;;;;;65.22;48.50;;;;;;;;;;4972735;28;20035;-72
2022/07/17 10:50:23;;;;;;;181.45;139.55;;;;;;;;;;4972644;28;20042;-68
2022/07/17 10:53:07;;;;;;;31.63;24.92;;;;;;;;;;4972749;28;20094;-69
2022/07/17 10:55:34;;;;;;;27.98;22.75;;;;;;;;;;4972431;28;20523;-67
2022/07/17 10:58:01;;;;;;;10.88;8.13;;;;;;;;;;4972562;28;20082;-66
2022/07/17 11:00:27;;;;;;;7.70;5.07;;;;;;;;;;4971986;28;20112;-68
2022/07/17 11:02:53;;;;;;;12.63;8.35;;;;;;;;;;4972678;28;20037;-67
2022/07/17 11:05:20;;;;;;;9.60;6.78;;;;;;;;;;5014686;28;20113;-70
2022/07/17 11:07:50;;;;;;;53.92;41.97;;;;;;;;;;5031545;28;20454;-67
2022/07/17 11:10:17;;;;;;;39.47;30.85;;;;;;;;;;5032047;28;20022;-71
2022/07/17 11:12:43;;;;;;;15.07;11.57;;;;;;;;;;5032406;28;20411;-74
2022/07/17 11:15:09;;;;;;;4.25;3.13;;;;;;;;;;5033280;28;20361;-67
2022/07/17 11:17:35;;;;;;;7.00;3.60;;;;;;;;;;5033144;28;20743;-67
2022/07/17 11:20:02;;;;;;;10.68;7.13;;;;;;;;;;5033181;28;20018;-68
2022/07/17 11:22:28;;;;;;;5.65;4.35;;;;;;;;;;5033125;28;20045;-67
2022/07/17 11:24:54;;;;;;;7.75;4.85;;;;;;;;;;5033308;28;20030;-68
2022/07/17 11:27:20;;;;;;;6.97;5.35;;;;;;;;;;5033381;28;20053;-67
2022/07/17 11:29:47;;;;;;;8.90;6.47;;;;;;;;;;5033264;28;20475;-67
2022/07/17 11:32:14;;;;;;;8.48;7.00;;;;;;;;;;5033319;28;20025;-69
2022/07/17 11:34:40;;;;;;;4.93;3.20;;;;;;;;;;5033275;28;20032;-70
2022/07/17 11:37:07;;;;;;;6.50;3.83;;;;;;;;;;5033507;28;20379;-69
2022/07/17 11:39:46;;;;;;;4.70;3.70;;;;;;;;;;5033100;28;20057;-69
2022/07/17 11:42:13;;;;;;;10.23;5.38;;;;;;;;;;5031464;28;20399;-68
2022/07/17 11:44:40;;;;;;;7.05;4.15;;;;;;;;;;5032957;28;20117;-67
2022/07/17 11:47:06;;;;;;;7.10;3.88;;;;;;;;;;5033306;28;20403;-67
2022/07/17 11:49:39;;;;;;;6.57;3.47;;;;;;;;;;5032946;28;20017;-68
2022/07/17 11:52:12;;;;;;;5.85;3.90;;;;;;;;;;5032954;28;20471;-68
2022/07/17 11:54:46;;;;;;;4.93;2.95;;;;;;;;;;5032819;28;20037;-68
2022/07/17 11:57:12;;;;;;;4.43;3.13;;;;;;;;;;5032779;28;20032;-67
2022/07/17 11:59:38;;;;;;;5.18;3.88;;;;;;;;;;5032765;28;20388;-68
2022/07/17 12:02:08;;;;;;;5.78;3.38;;;;;;;;;;5032377;28;20593;-68
2022/07/17 12:04:34;;;;;;;6.40;4.57;;;;;;;;;;5032740;28;20022;-69
2022/07/17 12:07:01;;;;;;;7.07;2.95;;;;;;;;;;5032920;28;20037;-68
2022/07/17 12:09:36;;;;;;;7.72;3.35;;;;;;;;;;5033013;28;20078;-68
2022/07/17 12:12:03;;;;;;;5.60;2.70;;;;;;;;;;5032230;28;20041;-68
2022/07/17 12:14:29;;;;;;;7.72;3.80;;;;;;;;;;5032762;28;20417;-67
2022/07/17 12:17:03;;;;;;;5.68;3.40;;;;;;;;;;5032676;28;20037;-68
2022/07/17 12:19:29;;;;;;;8.23;3.28;;;;;;;;;;5032738;28;20032;-67
2022/07/17 12:21:58;;;;;;;6.28;3.28;;;;;;;;;;5032523;28;20037;-68
2022/07/17 12:24:26;;;;;;;4.38;2.95;;;;;;;;;;5032998;28;20033;-67
2022/07/17 12:26:52;;;;;;;4.43;3.10;;;;;;;;;;5036784;28;20077;-67
2022/07/17 12:29:18;;;;;;;6.90;3.00;;;;;;;;;;5036558;28;20084;-67
2022/07/17 12:31:44;;;;;;;3.70;2.70;;;;;;;;;;5036091;28;20120;-68
2022/07/17 12:34:10;;;;;;;5.75;2.90;;;;;;;;;;5036602;28;20379;-67
2022/07/17 12:36:37;;;;;;;7.90;3.08;;;;;;;;;;5036166;28;20109;-67
2022/07/17 12:39:03;;;;;;;3.10;2.67;;;;;;;;;;5036254;28;20029;-67
2022/07/17 12:41:29;;;;;;;3.70;2.70;;;;;;;;;;5035929;28;20045;-68
2022/07/17 12:43:55;;;;;;;5.30;3.08;;;;;;;;;;5036074;28;20048;-67
2022/07/17 12:46:21;;;;;;;6.00;2.65;;;;;;;;;;5036096;28;20064;-68
2022/07/17 12:48:47;;;;;;;4.88;3.03;;;;;;;;;;5036110;28;20104;-68
2022/07/17 12:51:14;;;;;;;4.00;2.97;;;;;;;;;;5036079;28;20412;-67
2022/07/17 12:53:41;;;;;;;3.50;2.38;;;;;;;;;;5035889;28;20021;-68
2022/07/17 12:56:07;;;;;;;12.13;3.10;;;;;;;;;;5035901;28;20172;-67
2022/07/17 12:58:33;;;;;;;5.32;2.47;;;;;;;;;;5035659;28;20022;-67
2022/07/17 13:00:59;;;;;;;4.22;2.72;;;;;;;;;;5035530;28;20510;-67
2022/07/17 13:03:26;;;;;;;5.82;2.58;;;;;;;;;;5035680;28;20033;-67
2022/07/17 13:05:52;;;;;;;6.13;3.30;;;;;;;;;;5035455;28;20033;-67
2022/07/17 13:08:18;;;;;;;6.60;2.75;;;;;;;;;;5035487;28;20154;-68
2022/07/17 13:10:44;;;;;;;5.82;2.90;;;;;;;;;;5035195;28;20112;-68
2022/07/17 13:13:10;;;;;;;6.00;3.13;;;;;;;;;;5037400;28;20057;-67
2022/07/17 13:15:36;;;;;;;6.20;3.00;;;;;;;;;;5035322;28;20025;-68
2022/07/17 13:18:03;;;;;;;5.32;3.58;;;;;;;;;;5036012;28;20084;-67
2022/07/17 13:20:29;;;;;;;4.68;3.13;;;;;;;;;;5035553;28;20095;-68
2022/07/17 13:22:55;;;;;;;6.15;2.90;;;;;;;;;;5036163;28;20376;-69
2022/07/17 13:25:21;;;;;;;6.53;3.30;;;;;;;;;;5035477;28;20026;-66
2022/07/17 13:27:47;;;;;;;5.82;3.22;;;;;;;;;;5035420;28;20033;-68
2022/07/17 13:30:14;;;;;;;4.20;3.45;;;;;;;;;;5035754;28;20094;-69
2022/07/17 13:32:40;;;;;;;7.35;3.00;;;;;;;;;;5035256;28;20465;-73
2022/07/17 13:35:07;;;;;;;8.60;3.28;;;;;;;;;;5035171;28;20478;-75
2022/07/17 13:37:33;;;;;;;4.03;2.60;;;;;;;;;;5035632;28;20026;-70
2022/07/17 13:39:59;;;;;;;6.05;3.10;;;;;;;;;;5035550;28;20132;-76
2022/07/17 13:42:25;;;;;;;4.38;2.92;;;;;;;;;;5034933;28;20049;-70
2022/07/17 13:44:51;;;;;;;4.70;3.55;;;;;;;;;;5035069;28;20487;-74
2022/07/17 13:47:17;;;;;;;4.28;3.05;;;;;;;;;;5035147;28;20032;-68
2022/07/17 13:49:43;;;;;;;7.70;3.10;;;;;;;;;;5034902;28;20049;-69
2022/07/17 13:52:09;;;;;;;4.00;2.88;;;;;;;;;;5035233;28;20029;-67
2022/07/17 13:54:35;;;;;;;5.05;3.35;;;;;;;;;;5035137;28;20026;-68
2022/07/17 13:57:01;;;;;;;8.95;3.60;;;;;;;;;;5034933;28;20480;-69
2022/07/17 13:59:27;;;;;;;6.47;3.42;;;;;;;;;;5034848;28;20034;-67
2022/07/17 14:01:54;;;;;;;7.07;3.55;;;;;;;;;;5034573;28;20037;-68
2022/07/17 14:04:20;;;;;;;4.82;3.30;;;;;;;;;;5034939;28;20100;-67
2022/07/17 14:06:46;;;;;;;8.38;3.33;;;;;;;;;;5034809;28;20029;-67
2022/07/17 14:09:12;;;;;;;6.18;3.60;;;;;;;;;;5033206;28;20495;-67
2022/07/17 14:11:38;;;;;;;5.47;3.30;;;;;;;;;;5034705;28;20096;-68
2022/07/17 14:14:04;;;;;;;3.70;2.63;;;;;;;;;;5034748;28;20385;-67
2022/07/17 14:16:31;;;;;;;17.17;2.88;;;;;;;;;;5034625;28;20025;-69
2022/07/17 14:19:03;;;;;;;5.05;2.92;;;;;;;;;;5034560;28;20021;-68
2022/07/17 14:21:30;;;;;;;4.50;2.60;;;;;;;;;;5034600;28;20043;-68
2022/07/17 14:23:56;;;;;;;4.88;3.30;;;;;;;;;;5034436;28;20018;-68
2022/07/17 14:26:22;;;;;;;4.38;3.03;;;;;;;;;;5033327;28;20105;-66
2022/07/17 14:28:48;;;;;;;5.28;2.85;;;;;;;;;;5034394;28;20022;-70
2022/07/17 14:31:14;;;;;;;3.53;2.60;;;;;;;;;;5034211;28;20147;-68
2022/07/17 14:33:40;;;;;;;6.13;3.17;;;;;;;;;;5034376;28;20108;-67
2022/07/17 14:36:06;;;;;;;6.97;2.88;;;;;;;;;;5034465;28;20048;-68